createdAt,value
2019-05-29T00:03:06.264Z,8.83
2019-05-29T00:08:10.392Z,9.70
2019-05-29T00:13:14.506Z,10.45
2019-05-29T00:18:18.801Z,8.93
2019-05-29T00:23:21.910Z,8.33
2019-05-29T00:28:25.195Z,9.57
2019-05-29T00:33:28.295Z,10.63
2019-05-29T00:38:31.392Z,12.50
2019-05-29T00:43:34.678Z,11.88
2019-05-29T00:48:37.802Z,13.77
2019-05-29T00:53:40.943Z,10.40
2019-05-29T00:58:44.019Z,10.50
2019-05-29T01:03:47.185Z,7.47
2019-05-29T01:08:50.911Z,7.92
2019-05-29T01:13:53.976Z,8.40
2019-05-29T01:19:16.549Z,9.23
2019-05-29T01:24:20.636Z,8.80
2019-05-29T01:29:25.319Z,9.10
2019-05-29T01:34:29.792Z,10.90
2019-05-29T01:39:34.165Z,13.60
2019-05-29T01:44:37.376Z,13.28
2019-05-29T01:49:43.269Z,9.20
2019-05-29T01:54:47.475Z,9.35
2019-05-29T01:59:50.697Z,11.00
2019-05-29T02:04:53.867Z,11.03
2019-05-29T02:09:59.277Z,10.78
2019-05-29T02:15:04.302Z,7.03
2019-05-29T02:20:08.300Z,11.25
2019-05-29T02:25:11.870Z,8.58
2019-05-29T02:30:15.160Z,9.38
2019-05-29T02:35:20.075Z,9.60
2019-05-29T02:40:27.540Z,11.43
2019-05-29T02:45:50.275Z,11.60
2019-05-29T02:50:34.605Z,12.30
2019-05-29T02:55:37.681Z,9.10
2019-05-29T03:00:55.937Z,10.38
2019-05-29T03:05:59.000Z,10.53
2019-05-29T03:11:02.131Z,10.38
2019-05-29T03:16:11.208Z,11.35
2019-05-29T03:21:10.255Z,8.48
2019-05-29T03:26:13.352Z,11.73
2019-05-29T03:31:16.506Z,13.25
2019-05-29T03:36:19.761Z,10.63
2019-05-29T03:41:24.286Z,8.00
2019-05-29T03:46:35.508Z,9.55
2019-05-29T03:51:34.647Z,7.67
2019-05-29T03:56:38.900Z,12.37
2019-05-29T04:01:42.110Z,10.53
2019-05-29T04:06:47.418Z,9.50
2019-05-29T04:11:52.327Z,6.45
2019-05-29T04:17:00.276Z,6.22
2019-05-29T04:22:10.196Z,4.17
2019-05-29T04:27:16.927Z,4.75
2019-05-29T04:32:21.942Z,2.77
2019-05-29T04:37:26.493Z,2.13
2019-05-29T04:42:31.966Z,1.12
2019-05-29T04:47:35.193Z,0.88
2019-05-29T04:52:43.421Z,2.15
2019-05-29T04:57:50.525Z,1.00
2019-05-29T05:02:51.749Z,0.70
2019-05-29T05:07:54.936Z,0.50
2019-05-29T05:12:58.102Z,0.60
2019-05-29T05:18:04.025Z,1.98
2019-05-29T05:23:07.179Z,1.05
2019-05-29T05:28:12.801Z,0.70
2019-05-29T05:33:15.860Z,0.95
2019-05-29T05:38:18.993Z,0.70
2019-05-29T05:43:24.346Z,0.72
2019-05-29T05:48:27.084Z,0.60
2019-05-29T05:53:31.229Z,1.32
2019-05-29T05:58:35.703Z,5.95
2019-05-29T06:03:40.596Z,5.47
2019-05-29T06:08:43.750Z,2.72
2019-05-29T06:13:48.500Z,1.22
2019-05-29T06:18:51.451Z,3.55
2019-05-29T06:23:54.513Z,1.22
2019-05-29T06:28:57.640Z,0.53
2019-05-29T06:34:00.671Z,1.00
2019-05-29T06:39:06.035Z,1.67
2019-05-29T06:44:09.053Z,1.37
2019-05-29T06:49:12.019Z,0.60
2019-05-29T06:54:14.995Z,0.53
2019-05-29T06:59:18.024Z,1.02
2019-05-29T07:04:20.997Z,0.78
2019-05-29T07:09:23.960Z,0.95
2019-05-29T07:14:28.426Z,0.95
2019-05-29T07:19:47.650Z,2.37
2019-05-29T07:24:37.041Z,1.20
2019-05-29T07:29:41.114Z,2.50
2019-05-29T07:34:57.839Z,0.70
2019-05-29T07:39:49.469Z,1.43
2019-05-29T07:44:52.543Z,0.50
2019-05-29T07:49:55.626Z,1.30
2019-05-29T07:54:58.855Z,0.68
2019-05-29T08:00:03.351Z,3.12
2019-05-29T08:05:09.870Z,3.90
2019-05-29T08:10:13.188Z,7.47
2019-05-29T08:15:16.361Z,0.50
2019-05-29T08:20:19.803Z,2.58
2019-05-29T08:25:22.899Z,1.15
2019-05-29T08:30:25.983Z,1.00
2019-05-29T08:35:29.156Z,0.57
2019-05-29T08:40:32.937Z,1.55
2019-05-29T08:45:36.066Z,0.53
2019-05-29T08:50:39.153Z,1.37
2019-05-29T08:55:42.337Z,3.12
2019-05-29T09:00:49.767Z,3.22
2019-05-29T09:06:04.961Z,5.78
2019-05-29T09:10:55.989Z,1.90
2019-05-29T09:15:59.052Z,0.70
2019-05-29T09:21:03.952Z,0.50
2019-05-29T09:26:15.996Z,1.85
2019-05-29T09:31:15.007Z,1.02
2019-05-29T09:36:18.633Z,2.47
2019-05-29T09:41:23.537Z,0.88
2019-05-29T09:46:26.911Z,3.05
2019-05-29T09:51:30.081Z,2.67
2019-05-29T09:56:33.183Z,2.08
2019-05-29T10:01:36.365Z,0.80
2019-05-29T10:06:39.699Z,2.22
2019-05-29T10:11:42.791Z,3.22
2019-05-29T10:16:45.934Z,4.87
2019-05-29T10:21:48.960Z,0.80
2019-05-29T10:26:52.050Z,1.80
2019-05-29T10:31:55.371Z,8.05
2019-05-29T10:36:58.457Z,1.40
2019-05-29T10:42:01.759Z,6.53
2019-05-29T10:47:05.030Z,1.92
2019-05-29T10:52:15.700Z,1.17
2019-05-29T10:57:13.250Z,1.30
2019-05-29T11:02:16.307Z,2.25
2019-05-29T11:07:19.464Z,2.95
2019-05-29T11:12:22.558Z,4.60
2019-05-29T11:17:26.750Z,2.00
2019-05-29T11:22:29.869Z,3.22
2019-05-29T11:27:32.996Z,2.92
2019-05-29T11:32:36.134Z,2.35
2019-05-29T11:37:39.211Z,3.05
2019-05-29T11:42:42.305Z,4.95
2019-05-29T11:47:45.393Z,2.35
2019-05-29T11:52:48.423Z,4.83
2019-05-29T11:57:51.861Z,4.17
2019-05-29T12:02:55.854Z,6.30
2019-05-29T12:07:59.602Z,5.78
2019-05-29T12:13:02.898Z,4.35
2019-05-29T12:18:23.178Z,7.20
2019-05-29T12:23:24.743Z,5.55
2019-05-29T12:28:16.038Z,2.95
2019-05-29T12:33:19.512Z,4.37
2019-05-29T12:38:22.600Z,7.03
2019-05-29T12:43:27.724Z,6.40
2019-05-29T12:48:30.714Z,6.28
2019-05-29T12:53:33.801Z,5.03
2019-05-29T12:58:36.889Z,7.00
2019-05-29T13:03:40.007Z,7.67
2019-05-29T13:08:44.411Z,4.62
2019-05-29T13:13:48.034Z,4.03
2019-05-29T13:18:51.172Z,5.00
2019-05-29T13:23:54.334Z,4.75
2019-05-29T13:28:57.625Z,7.75
2019-05-29T13:34:01.797Z,3.77
2019-05-29T13:39:07.446Z,5.58
2019-05-29T13:44:10.544Z,5.65
2019-05-29T13:49:13.924Z,6.72
2019-05-29T13:54:18.291Z,9.58
2019-05-29T13:59:23.255Z,15.60
2019-05-29T14:04:26.418Z,10.85
2019-05-29T14:09:29.573Z,7.05
2019-05-29T14:14:32.689Z,7.03
2019-05-29T14:19:35.763Z,9.23
2019-05-29T14:24:38.854Z,6.33
2019-05-29T14:29:41.939Z,6.80
2019-05-29T14:34:45.108Z,10.05
2019-05-29T14:39:48.203Z,6.37
2019-05-29T14:44:51.320Z,7.58
2019-05-29T14:49:54.699Z,8.90
2019-05-29T14:54:57.883Z,7.50
2019-05-29T15:00:02.069Z,8.60
2019-05-29T15:05:07.674Z,6.37
2019-05-29T15:10:24.047Z,10.15
2019-05-29T15:15:17.456Z,6.77
2019-05-29T15:20:22.386Z,7.42
2019-05-29T15:25:25.480Z,8.88
2019-05-29T15:30:28.555Z,5.47
2019-05-29T15:35:31.539Z,8.48
2019-05-29T15:40:34.646Z,7.60
2019-05-29T15:45:37.847Z,6.70
2019-05-29T15:50:41.080Z,4.87
2019-05-29T15:55:44.140Z,7.08
2019-05-29T16:00:47.796Z,5.85
2019-05-29T16:05:51.060Z,8.80
2019-05-29T16:10:54.203Z,8.03
2019-05-29T16:15:57.189Z,9.08
2019-05-29T16:21:00.367Z,6.78
2019-05-29T16:26:04.127Z,11.50
2019-05-29T16:31:07.248Z,3.08
2019-05-29T16:36:10.214Z,6.40
2019-05-29T16:41:13.783Z,5.25
2019-05-29T16:46:19.264Z,5.62
2019-05-29T16:51:23.070Z,5.58
2019-05-29T16:56:26.150Z,4.67
2019-05-29T17:01:29.208Z,4.30
2019-05-29T17:06:32.260Z,10.20
2019-05-29T17:11:35.521Z,9.05
2019-05-29T17:16:38.918Z,8.35
2019-05-29T17:21:42.374Z,5.90
2019-05-29T17:26:45.449Z,7.92
2019-05-29T17:31:48.424Z,5.67
2019-05-29T17:36:51.590Z,6.15
2019-05-29T17:41:54.632Z,4.35
2019-05-29T17:46:57.726Z,7.60
2019-05-29T17:52:00.827Z,7.28
2019-05-29T17:57:04.197Z,6.60
2019-05-29T18:02:07.781Z,8.63
2019-05-29T18:07:10.773Z,6.10
2019-05-29T18:12:13.910Z,4.12
2019-05-29T18:17:17.454Z,3.52
2019-05-29T18:22:21.609Z,9.23
2019-05-29T18:27:25.983Z,11.97
2019-05-29T18:32:29.343Z,18.98
2019-05-29T18:37:32.539Z,15.93
2019-05-29T18:42:36.118Z,18.48
2019-05-29T18:47:39.130Z,18.98
2019-05-29T18:52:42.685Z,14.73
2019-05-29T18:57:46.880Z,18.02
2019-05-29T19:02:49.944Z,15.70
2019-05-29T19:07:53.071Z,15.00
2019-05-29T19:12:56.240Z,16.52
2019-05-29T19:17:59.195Z,7.60
2019-05-29T19:23:02.356Z,6.55
2019-05-29T19:28:05.671Z,7.55
2019-05-29T19:33:08.855Z,7.08
2019-05-29T19:38:11.962Z,6.53
2019-05-29T19:43:15.304Z,7.03
2019-05-29T19:48:18.545Z,10.05
2019-05-29T19:53:25.264Z,7.98
2019-05-29T19:58:28.036Z,4.78
2019-05-29T20:03:36.574Z,9.44
2019-05-29T20:14:07.944Z,5.47
2019-05-29T20:19:33.849Z,4.30
2019-05-29T20:24:58.267Z,7.50
2019-05-29T20:30:01.492Z,5.15
2019-05-29T20:35:05.026Z,4.70
2019-05-29T20:40:08.845Z,6.92
2019-05-29T20:45:14.447Z,6.53
2019-05-29T20:50:17.985Z,6.22
2019-05-29T20:55:23.057Z,4.85
2019-05-29T21:00:26.152Z,8.43
2019-05-29T21:05:29.331Z,6.05
2019-05-29T21:10:33.110Z,6.08
2019-05-29T21:15:37.576Z,5.00
2019-05-29T21:20:40.895Z,6.53
2019-05-29T21:25:44.971Z,5.40
2019-05-29T21:30:48.558Z,4.97
2019-05-29T21:35:51.652Z,8.95
2019-05-29T21:40:54.766Z,8.33
2019-05-29T21:45:57.858Z,6.85
2019-05-29T21:51:01.058Z,5.62
2019-05-29T21:56:04.209Z,6.97
2019-05-29T22:01:07.309Z,10.25
2019-05-29T22:06:10.312Z,9.70
2019-05-29T22:11:15.456Z,12.53
2019-05-29T22:16:18.545Z,10.13
2019-05-29T22:21:21.662Z,11.80
2019-05-29T22:26:24.754Z,5.80
2019-05-29T22:31:27.839Z,7.87
2019-05-29T22:36:30.976Z,9.68
2019-05-29T22:41:34.049Z,11.80
2019-05-29T22:46:39.469Z,14.50
2019-05-29T22:51:42.552Z,10.33
2019-05-29T22:56:47.850Z,6.47
2019-05-29T23:01:52.022Z,8.65
2019-05-29T23:06:56.338Z,10.88
2019-05-29T23:12:00.442Z,14.68
2019-05-29T23:17:03.680Z,12.80
2019-05-29T23:22:06.755Z,8.93
2019-05-29T23:27:09.790Z,12.35
2019-05-29T23:32:12.861Z,11.63
2019-05-29T23:37:15.924Z,11.05
2019-05-29T23:42:19.009Z,8.43
2019-05-29T23:47:22.069Z,9.58
2019-05-29T23:52:25.260Z,9.65
2019-05-29T23:57:28.790Z,11.95
